Labelle, Canada
Current Conditions -  °F | °C
As of 6:00 PM on Friday 28 Nov 2014 (Local Time) from CYMX Reporting Station
Rain Showers Rain Showers  
Wind Chill: 15°   Ceiling: 3200
Heat Index: 23°   Visibility: 25mi
Dew Point: 10°   Wind: 7mph
Humidity: 59%   Direction: 300°WNW
Pressure: 30.16"   Gusts: NA
Location:  46.28°N, 74.73°W
Report Text: CYMX 282300Z 30006KT 260V330 25SM VCSH BKN032 M05/M12 A3016 RMK SC7 SLP220
Loading
Personal Weather Stations






























Interactive Weather Map New forecast layout! Learn more

10-Day Weather Forecast

Advertisements
Track Severe Weather on mobile